Rancho La Tuna Canyon, California
Current Conditions -  °F | °C
As of 6:53 PM on Wednesday 26 Nov 2014 (Local Time) from KBUR Reporting Station
Clear Clear  
Wind Chill: 69°   Ceiling: Unl
Heat Index: 69°   Visibility: 10mi
Dew Point: 27°   Wind: 3mph
Humidity: 21%   Direction: 330°NNW
Pressure: 30.15"   Gusts: NA
Location:  34.2294°N, 118.357°W
Report Text: KBUR 270253Z 33003KT 10SM CLR 21/M03 A3015 RMK AO2 SLP199 T02061028 53003
Loading
Personal Weather Stations






























Interactive Weather Map New forecast layout! Learn more

10-Day Weather Forecast

Advertisements
Track Severe Weather on mobile